createdAt,value
2018-02-24T00:01:06.599Z,64.20
2018-02-24T00:03:34.361Z,64.20
2018-02-24T00:06:02.858Z,64.50
2018-02-24T00:08:31.197Z,64.40
2018-02-24T00:11:00.257Z,64.60
2018-02-24T00:13:28.248Z,64.50
2018-02-24T00:15:55.792Z,64.90
2018-02-24T00:18:23.337Z,64.90
2018-02-24T00:20:50.920Z,65.00
2018-02-24T00:23:18.469Z,65.00
2018-02-24T00:25:46.041Z,65.00
2018-02-24T00:28:13.588Z,65.00
2018-02-24T00:30:41.168Z,65.00
2018-02-24T00:33:08.708Z,64.90
2018-02-24T00:35:36.580Z,65.00
2018-02-24T00:38:04.129Z,64.90
2018-02-24T00:40:31.682Z,64.90
2018-02-24T00:42:59.273Z,64.90
2018-02-24T00:45:26.833Z,64.90
2018-02-24T00:47:54.423Z,64.90
2018-02-24T00:50:21.968Z,64.90
2018-02-24T00:52:49.548Z,64.80
2018-02-24T00:55:17.101Z,65.10
2018-02-24T00:57:45.457Z,65.20
2018-02-24T01:00:13.001Z,65.10
2018-02-24T01:02:40.588Z,65.60
2018-02-24T01:05:08.369Z,65.10
2018-02-24T01:07:36.674Z,65.80
2018-02-24T01:10:04.507Z,66.40
2018-02-24T01:12:32.828Z,65.80
2018-02-24T01:15:00.550Z,65.70
2018-02-24T01:17:28.128Z,65.70
2018-02-24T01:19:55.765Z,65.70
2018-02-24T01:22:24.328Z,65.40
2018-02-24T01:24:51.881Z,65.40
2018-02-24T01:27:19.460Z,65.50
2018-02-24T01:29:47.015Z,65.70
2018-02-24T01:32:15.879Z,65.70
2018-02-24T01:34:43.428Z,65.70
2018-02-24T01:37:10.946Z,65.70
2018-02-24T01:39:38.529Z,65.50
2018-02-24T01:42:06.087Z,65.50
2018-02-24T01:44:33.677Z,65.60
2018-02-24T01:47:01.233Z,65.90
2018-02-24T01:49:28.853Z,65.80
2018-02-24T01:51:56.438Z,65.60
2018-02-24T01:54:24.032Z,66.10
2018-02-24T01:56:52.341Z,66.10
2018-02-24T01:59:21.168Z,66.10
2018-02-24T02:01:48.725Z,66.10
2018-02-24T02:04:16.314Z,65.90
2018-02-24T02:06:44.166Z,65.70
2018-02-24T02:09:11.708Z,65.90
2018-02-24T02:11:39.306Z,65.70
2018-02-24T02:14:06.848Z,65.70
2018-02-24T02:16:34.814Z,65.60
2018-02-24T02:19:02.363Z,65.60
2018-02-24T02:21:29.945Z,66.10
2018-02-24T02:23:57.526Z,65.80
2018-02-24T02:26:25.088Z,66.20
2018-02-24T02:28:53.449Z,66.30
2018-02-24T02:31:21.023Z,66.30
2018-02-24T02:33:49.519Z,66.50
2018-02-24T02:36:17.058Z,66.50
2018-02-24T02:38:44.997Z,66.40
2018-02-24T02:41:12.549Z,66.50
2018-02-24T02:43:40.093Z,66.70
2018-02-24T02:46:07.687Z,67.30
2018-02-24T02:48:35.242Z,67.20
2018-02-24T02:51:02.834Z,67.30
2018-02-24T02:53:30.395Z,67.10
2018-02-24T02:55:58.747Z,67.50
2018-02-24T02:58:27.810Z,67.40
2018-02-24T03:00:55.794Z,67.40
2018-02-24T03:03:23.343Z,67.30
2018-02-24T03:05:50.986Z,67.40
2018-02-24T03:08:18.580Z,67.30
2018-02-24T03:10:46.129Z,67.20
2018-02-24T03:13:14.098Z,67.40
2018-02-24T03:15:41.644Z,67.10
2018-02-24T03:18:09.185Z,67.30
2018-02-24T03:20:36.768Z,67.60
2018-02-24T03:23:04.313Z,67.40
2018-02-24T03:25:31.901Z,67.40
2018-02-24T03:27:59.461Z,67.60
2018-02-24T03:30:27.050Z,67.70
2018-02-24T03:32:54.597Z,67.60
2018-02-24T03:35:22.944Z,67.20
2018-02-24T03:37:50.494Z,67.10
2018-02-24T03:40:18.372Z,67.20
2018-02-24T03:42:45.921Z,67.50
2018-02-24T03:45:13.477Z,67.40
2018-02-24T03:47:41.070Z,67.60
2018-02-24T03:50:08.625Z,67.60
2018-02-24T03:52:36.220Z,67.60
2018-02-24T03:55:03.765Z,67.50
2018-02-24T03:57:32.421Z,67.80
2018-02-24T03:59:59.967Z,67.80
2018-02-24T04:02:27.555Z,67.70
2018-02-24T04:04:55.901Z,68.00
2018-02-24T04:07:23.449Z,68.00
2018-02-24T04:09:51.125Z,67.80
2018-02-24T04:12:18.699Z,68.00
2018-02-24T04:14:46.276Z,68.00
2018-02-24T04:17:14.577Z,67.90
2018-02-24T04:19:42.920Z,67.70
2018-02-24T04:22:10.466Z,67.60
2018-02-24T04:24:38.020Z,67.70
2018-02-24T04:27:05.615Z,68.00
2018-02-24T04:29:33.942Z,68.70
2018-02-24T04:32:01.517Z,68.10
2018-02-24T04:34:29.098Z,68.20
2018-02-24T04:36:58.200Z,67.90
2018-02-24T04:39:26.325Z,67.90
2018-02-24T04:41:54.357Z,67.60
2018-02-24T04:44:21.898Z,67.70
2018-02-24T04:46:49.436Z,67.90
2018-02-24T04:49:17.026Z,67.90
2018-02-24T04:51:44.576Z,67.70
2018-02-24T04:54:12.157Z,67.70
2018-02-24T04:56:41.364Z,68.10
2018-02-24T04:59:09.326Z,68.10
2018-02-24T05:01:36.861Z,67.70
2018-02-24T05:04:04.413Z,67.60
2018-02-24T05:06:32.138Z,68.10
2018-02-24T05:08:59.677Z,67.70
2018-02-24T05:11:27.600Z,67.90
2018-02-24T05:13:55.969Z,67.60
2018-02-24T05:16:23.524Z,67.60
2018-02-24T05:18:51.110Z,67.80
2018-02-24T05:21:18.665Z,68.00
2018-02-24T05:23:48.161Z,67.80
2018-02-24T05:26:16.685Z,67.80
2018-02-24T05:28:45.012Z,68.20
2018-02-24T05:31:12.710Z,68.30
2018-02-24T05:33:40.257Z,68.30
2018-02-24T05:36:08.605Z,68.30
2018-02-24T05:38:36.196Z,68.30
2018-02-24T05:41:04.541Z,67.60
2018-02-24T05:43:32.094Z,67.60
2018-02-24T05:45:59.982Z,67.90
2018-02-24T05:48:27.534Z,68.30
2018-02-24T05:50:55.101Z,68.00
2018-02-24T05:53:22.685Z,67.90
2018-02-24T05:55:51.011Z,68.10
2018-02-24T05:58:18.592Z,68.00
2018-02-24T06:00:46.153Z,68.40
2018-02-24T06:03:14.017Z,68.40
2018-02-24T06:05:41.560Z,68.40
2018-02-24T06:08:09.112Z,68.40
2018-02-24T06:10:36.818Z,68.60
2018-02-24T06:13:05.146Z,69.40
2018-02-24T06:15:32.733Z,68.80
2018-02-24T06:18:00.300Z,68.70
2018-02-24T06:20:29.389Z,68.80
2018-02-24T06:22:56.931Z,68.80
2018-02-24T06:25:24.519Z,68.80
2018-02-24T06:27:52.107Z,68.40
2018-02-24T06:30:20.756Z,68.30
2018-02-24T06:32:48.301Z,68.20
2018-02-24T06:35:16.127Z,68.20
2018-02-24T06:37:43.714Z,68.20
2018-02-24T06:40:11.277Z,68.20
2018-02-24T06:42:38.861Z,68.40
2018-02-24T06:45:06.610Z,68.20
2018-02-24T06:47:34.202Z,68.20
2018-02-24T06:50:02.673Z,68.20
2018-02-24T06:52:31.033Z,68.10
2018-02-24T06:54:58.585Z,68.10
2018-02-24T06:57:26.180Z,68.10
2018-02-24T06:59:53.902Z,67.90
2018-02-24T07:02:21.805Z,68.00
2018-02-24T07:04:50.118Z,67.70
2018-02-24T07:07:17.687Z,67.70
2018-02-24T07:09:45.279Z,67.70
2018-02-24T07:12:12.833Z,67.50
2018-02-24T07:14:40.465Z,67.40
2018-02-24T07:17:08.012Z,67.30
2018-02-24T07:19:36.364Z,67.10
2018-02-24T07:22:03.915Z,67.10
2018-02-24T07:24:32.252Z,66.90
2018-02-24T07:26:59.805Z,66.90
2018-02-24T07:29:27.691Z,66.30
2018-02-24T07:31:55.254Z,66.70
2018-02-24T07:34:22.811Z,66.80
2018-02-24T07:36:50.590Z,66.80
2018-02-24T07:39:18.153Z,66.80
2018-02-24T07:41:45.742Z,66.70
2018-02-24T07:44:13.320Z,66.70
2018-02-24T07:46:41.485Z,66.80
2018-02-24T07:49:09.185Z,66.70
2018-02-24T07:51:36.746Z,66.50
2018-02-24T07:54:04.326Z,66.20
2018-02-24T07:56:32.008Z,66.50
2018-02-24T07:58:59.584Z,66.50
2018-02-24T08:01:27.141Z,66.50
2018-02-24T08:03:55.499Z,66.50
2018-02-24T08:06:23.064Z,66.60
2018-02-24T08:08:50.694Z,66.10
2018-02-24T08:11:18.296Z,66.00
2018-02-24T08:13:45.881Z,66.00
2018-02-24T08:16:13.426Z,66.10
2018-02-24T08:18:41.399Z,66.10
2018-02-24T08:21:09.255Z,66.10
2018-02-24T08:23:36.837Z,66.20
2018-02-24T08:26:04.422Z,66.30
2018-02-24T08:28:31.975Z,66.50
2018-02-24T08:30:59.554Z,65.80
2018-02-24T08:33:27.236Z,66.50
2018-02-24T08:35:54.836Z,66.50
2018-02-24T08:38:22.398Z,66.70
2018-02-24T08:40:50.296Z,66.50
2018-02-24T08:43:17.929Z,66.60
2018-02-24T08:45:46.471Z,66.60
2018-02-24T08:48:14.050Z,66.80
2018-02-24T08:50:41.589Z,66.90
2018-02-24T08:53:09.368Z,66.50
2018-02-24T08:55:36.921Z,67.10
2018-02-24T08:58:05.367Z,66.30
2018-02-24T09:00:32.906Z,66.30
2018-02-24T09:03:00.885Z,66.20
2018-02-24T09:05:28.443Z,66.10
2018-02-24T09:07:56.001Z,65.80
2018-02-24T09:10:23.605Z,66.20
2018-02-24T09:12:51.170Z,66.30
2018-02-24T09:15:19.529Z,66.40
2018-02-24T09:17:47.358Z,66.30
2018-02-24T09:20:14.934Z,66.00
2018-02-24T09:22:42.493Z,66.10
2018-02-24T09:25:10.037Z,66.10
2018-02-24T09:27:37.617Z,66.00
2018-02-24T09:30:05.175Z,66.10
2018-02-24T09:32:32.874Z,65.80
2018-02-24T09:35:01.192Z,65.40
2018-02-24T09:37:29.186Z,65.20
2018-02-24T09:39:57.518Z,66.40
2018-02-24T09:42:25.066Z,66.40
2018-02-24T09:44:52.657Z,66.90
2018-02-24T09:47:20.206Z,66.10
2018-02-24T09:49:48.032Z,65.60
2018-02-24T09:52:15.574Z,65.20
2018-02-24T09:54:43.321Z,65.20
2018-02-24T09:57:10.878Z,65.00
2018-02-24T09:59:38.714Z,64.40
2018-02-24T10:02:06.261Z,63.80
2018-02-24T10:04:33.796Z,63.80
2018-02-24T10:07:01.581Z,63.40
2018-02-24T10:09:29.134Z,63.10
2018-02-24T10:11:56.714Z,62.60
2018-02-24T10:14:24.273Z,62.60
2018-02-24T10:16:51.957Z,62.50
2018-02-24T10:19:19.501Z,63.00
2018-02-24T10:21:47.491Z,63.10
2018-02-24T10:24:15.034Z,62.00
2018-02-24T10:26:42.593Z,61.30
2018-02-24T10:29:10.269Z,60.50
2018-02-24T10:31:37.803Z,60.00
2018-02-24T10:34:05.374Z,59.50
2018-02-24T10:36:32.995Z,59.60
2018-02-24T10:39:00.593Z,58.60
2018-02-24T10:41:28.224Z,59.10
2018-02-24T10:43:55.816Z,59.00
2018-02-24T10:46:23.409Z,59.00
2018-02-24T10:49:03.049Z,59.00
2018-02-24T10:51:30.681Z,59.10
2018-02-24T10:53:58.241Z,59.60
2018-02-24T10:56:26.002Z,58.00
2018-02-24T10:58:53.540Z,56.40
2018-02-24T11:01:21.113Z,56.10
2018-02-24T11:03:48.642Z,56.50
2018-02-24T11:06:17.012Z,53.30
2018-02-24T11:08:44.561Z,53.30
2018-02-24T11:11:12.131Z,52.10
2018-02-24T11:13:39.698Z,52.00
2018-02-24T11:16:08.346Z,51.60
2018-02-24T11:18:35.894Z,51.60
2018-02-24T11:21:03.466Z,52.40
2018-02-24T11:23:31.047Z,51.80
2018-02-24T11:25:58.619Z,51.40
2018-02-24T11:28:27.105Z,51.10
2018-02-24T11:30:55.418Z,51.70
2018-02-24T11:33:22.984Z,51.70
2018-02-24T11:35:50.701Z,51.60
2018-02-24T11:38:19.333Z,50.40
2018-02-24T11:40:46.883Z,50.50
2018-02-24T11:43:14.413Z,51.50
2018-02-24T11:45:42.118Z,51.90
2018-02-24T11:48:09.659Z,51.20
2018-02-24T11:50:37.239Z,50.90
2018-02-24T11:53:04.782Z,51.70
2018-02-24T11:55:32.743Z,51.70
2018-02-24T11:58:00.349Z,51.30
2018-02-24T12:00:27.909Z,52.40
2018-02-24T12:02:55.590Z,51.90
2018-02-24T12:05:23.907Z,52.40
2018-02-24T12:07:51.494Z,52.40
2018-02-24T12:10:19.026Z,50.40
2018-02-24T12:12:46.647Z,50.10
2018-02-24T12:15:14.953Z,49.90
2018-02-24T12:17:42.528Z,49.90
2018-02-24T12:20:10.077Z,49.20
2018-02-24T12:22:37.701Z,49.70
2018-02-24T12:25:06.068Z,48.50
2018-02-24T12:27:33.609Z,48.50
2018-02-24T12:30:01.671Z,47.90
2018-02-24T12:32:29.197Z,47.80
2018-02-24T12:34:56.736Z,49.40
2018-02-24T12:37:24.312Z,48.70
2018-02-24T12:39:51.872Z,48.50
2018-02-24T12:42:19.488Z,49.40
2018-02-24T12:44:47.027Z,50.50
2018-02-24T12:47:14.613Z,49.30
2018-02-24T12:49:42.317Z,49.50
2018-02-24T12:52:10.089Z,50.00
2018-02-24T12:54:37.626Z,49.80
2018-02-24T12:57:05.498Z,49.80
2018-02-24T12:59:33.024Z,49.50
2018-02-24T13:02:00.578Z,50.60
2018-02-24T13:04:28.179Z,49.50
2018-02-24T13:06:55.716Z,50.20
2018-02-24T13:09:23.650Z,50.10
2018-02-24T13:11:51.953Z,49.70
2018-02-24T13:14:19.545Z,49.90
2018-02-24T13:16:47.125Z,50.30
2018-02-24T13:19:14.664Z,49.90
2018-02-24T13:21:42.336Z,50.40
2018-02-24T13:24:09.886Z,49.40
2018-02-24T13:26:37.458Z,49.90
2018-02-24T13:29:05.087Z,50.00
2018-02-24T13:31:33.222Z,49.90
2018-02-24T13:34:00.782Z,50.20
2018-02-24T13:36:28.399Z,50.40
2018-02-24T13:38:55.998Z,49.90
2018-02-24T13:41:23.576Z,50.10
2018-02-24T13:43:51.121Z,49.90
2018-02-24T13:46:18.658Z,50.90
2018-02-24T13:48:46.636Z,50.70
2018-02-24T13:51:14.174Z,50.30
2018-02-24T13:53:41.722Z,50.30
2018-02-24T13:56:09.306Z,50.60
2018-02-24T13:58:36.849Z,50.20
2018-02-24T14:01:04.608Z,50.10
2018-02-24T14:03:32.163Z,50.40
2018-02-24T14:05:59.755Z,50.60
2018-02-24T14:08:27.302Z,49.40
2018-02-24T14:10:56.017Z,49.80
2018-02-24T14:13:23.564Z,49.80
2018-02-24T14:15:51.338Z,49.40
2018-02-24T14:18:19.189Z,49.40
2018-02-24T14:20:46.746Z,49.50
2018-02-24T14:23:14.573Z,50.10
2018-02-24T14:25:42.225Z,50.00
2018-02-24T14:28:10.535Z,51.40
2018-02-24T14:30:38.146Z,51.40
2018-02-24T14:33:05.904Z,49.80
2018-02-24T14:35:33.852Z,49.20
2018-02-24T14:38:01.525Z,50.10
2018-02-24T14:40:29.153Z,50.80
2018-02-24T14:42:56.722Z,50.70
2018-02-24T14:45:24.344Z,51.60
2018-02-24T14:47:53.000Z,50.20
2018-02-24T14:50:20.540Z,50.30
2018-02-24T14:52:48.095Z,49.60
2018-02-24T14:55:16.456Z,49.30
2018-02-24T14:57:43.996Z,49.10
2018-02-24T15:00:11.580Z,49.60
2018-02-24T15:02:39.161Z,50.20
2018-02-24T15:05:06.777Z,49.60
2018-02-24T15:07:34.332Z,49.70
2018-02-24T15:10:01.909Z,50.20
2018-02-24T15:12:29.445Z,50.20
2018-02-24T15:14:57.426Z,49.70
2018-02-24T15:17:24.961Z,48.90
2018-02-24T15:19:53.279Z,49.00
2018-02-24T15:22:20.864Z,49.00
2018-02-24T15:24:48.614Z,49.10
2018-02-24T15:27:16.607Z,49.30
2018-02-24T15:29:44.177Z,49.10
2018-02-24T15:32:11.754Z,49.40
2018-02-24T15:34:40.098Z,49.70
2018-02-24T15:37:07.652Z,49.70
2018-02-24T15:39:35.761Z,49.70
2018-02-24T15:42:04.177Z,49.90
2018-02-24T15:44:31.837Z,49.90
2018-02-24T15:46:59.417Z,50.20
2018-02-24T15:49:27.026Z,50.40
2018-02-24T15:51:54.785Z,50.40
2018-02-24T15:54:22.233Z,50.00
2018-02-24T15:56:49.839Z,50.10
2018-02-24T15:59:17.394Z,49.90
2018-02-24T16:01:45.284Z,50.70
2018-02-24T16:04:12.865Z,49.80
2018-02-24T16:06:40.387Z,49.60
2018-02-24T16:09:08.000Z,49.30
2018-02-24T16:11:35.536Z,49.50
2018-02-24T16:14:03.126Z,50.00
2018-02-24T16:16:30.656Z,49.80
2018-02-24T16:18:58.221Z,49.50
2018-02-24T16:21:25.920Z,49.40
2018-02-24T16:23:53.466Z,49.80
2018-02-24T16:26:21.841Z,49.70
2018-02-24T16:28:49.388Z,49.70
2018-02-24T16:31:18.089Z,49.80
2018-02-24T16:33:46.402Z,50.50
2018-02-24T16:36:13.964Z,50.50
2018-02-24T16:38:41.542Z,50.60
2018-02-24T16:41:09.087Z,50.50
2018-02-24T16:43:36.699Z,50.50
2018-02-24T16:46:04.249Z,50.50
2018-02-24T16:48:31.845Z,50.40
2018-02-24T16:50:59.397Z,50.40
2018-02-24T16:53:28.026Z,51.00
2018-02-24T16:55:55.580Z,51.00
2018-02-24T16:58:23.142Z,50.90
2018-02-24T17:00:50.713Z,51.40
2018-02-24T17:03:18.257Z,51.30
2018-02-24T17:05:46.141Z,51.20
2018-02-24T17:08:13.690Z,51.20
2018-02-24T17:10:41.623Z,51.80
2018-02-24T17:13:09.233Z,51.50
2018-02-24T17:15:36.787Z,51.30
2018-02-24T17:18:04.379Z,51.50
2018-02-24T17:20:31.939Z,51.40
2018-02-24T17:23:00.594Z,51.60
2018-02-24T17:25:28.134Z,51.60
2018-02-24T17:27:55.669Z,51.90
2018-02-24T17:30:23.236Z,52.10
2018-02-24T17:32:50.766Z,51.80
2018-02-24T17:35:18.346Z,51.80
2018-02-24T17:37:45.897Z,51.90
2018-02-24T17:40:13.482Z,52.10
2018-02-24T17:42:41.016Z,52.20
2018-02-24T17:45:08.913Z,52.20
2018-02-24T17:47:36.463Z,52.20
2018-02-24T17:50:04.014Z,52.20
2018-02-24T17:52:31.594Z,52.10
2018-02-24T17:54:59.158Z,51.70
2018-02-24T17:57:27.026Z,51.90
2018-02-24T17:59:54.782Z,51.70
2018-02-24T18:02:22.341Z,51.70
2018-02-24T18:04:50.074Z,51.80
2018-02-24T18:07:17.627Z,51.80
2018-02-24T18:09:45.217Z,51.80
2018-02-24T18:12:12.820Z,51.70
2018-02-24T18:14:40.412Z,51.80
2018-02-24T18:17:07.960Z,51.80
2018-02-24T18:19:36.302Z,51.70
2018-02-24T18:22:03.824Z,51.70
2018-02-24T18:24:31.733Z,52.10
2018-02-24T18:26:59.301Z,52.10
2018-02-24T18:29:26.848Z,52.30
2018-02-24T18:31:54.431Z,52.30
2018-02-24T18:34:21.968Z,52.50
2018-02-24T18:36:49.557Z,53.30
2018-02-24T18:39:17.236Z,52.50
2018-02-24T18:41:45.205Z,52.40
2018-02-24T18:44:12.726Z,52.40
2018-02-24T18:46:40.271Z,52.60
2018-02-24T18:49:07.846Z,52.20
2018-02-24T18:51:37.186Z,52.40
2018-02-24T18:54:05.359Z,52.40
2018-02-24T18:56:32.936Z,52.40
2018-02-24T18:59:01.034Z,52.20
2018-02-24T19:01:28.595Z,52.40
2018-02-24T19:03:56.135Z,52.50
2018-02-24T19:06:23.728Z,52.40
2018-02-24T19:08:51.290Z,52.40
2018-02-24T19:11:19.648Z,52.90
2018-02-24T19:13:47.224Z,52.80
2018-02-24T19:16:15.252Z,52.70
2018-02-24T19:18:42.799Z,52.60
2018-02-24T19:21:10.353Z,52.60
2018-02-24T19:23:37.934Z,52.60
2018-02-24T19:26:05.489Z,53.30
2018-02-24T19:28:33.122Z,53.00
2018-02-24T19:31:00.664Z,53.10
2018-02-24T19:33:28.487Z,53.50
2018-02-24T19:35:56.097Z,54.50
2018-02-24T19:38:23.654Z,53.80
2018-02-24T19:40:52.058Z,53.80
2018-02-24T19:43:19.607Z,53.70
2018-02-24T19:45:48.181Z,53.70
2018-02-24T19:48:15.745Z,53.70
2018-02-24T19:50:44.410Z,54.10
2018-02-24T19:53:12.840Z,54.10
2018-02-24T19:55:40.466Z,54.10
2018-02-24T19:58:08.112Z,54.10
2018-02-24T20:00:35.663Z,54.20
2018-02-24T20:03:04.472Z,54.40
2018-02-24T20:05:32.069Z,54.40
2018-02-24T20:07:59.617Z,54.80
2018-02-24T20:10:27.216Z,54.60
2018-02-24T20:12:54.762Z,54.60
2018-02-24T20:15:22.601Z,54.40
2018-02-24T20:17:51.134Z,54.70
2018-02-24T20:20:18.686Z,54.50
2018-02-24T20:22:46.430Z,54.80
2018-02-24T20:25:14.002Z,55.00
2018-02-24T20:27:41.849Z,55.20
2018-02-24T20:30:09.418Z,55.20
2018-02-24T20:32:36.981Z,55.20
2018-02-24T20:35:04.565Z,55.20
2018-02-24T20:37:32.908Z,55.20
2018-02-24T20:40:00.490Z,55.20
2018-02-24T20:42:28.118Z,55.10
2018-02-24T20:44:56.016Z,55.10
2018-02-24T20:47:23.709Z,55.10
2018-02-24T20:49:52.061Z,55.20
2018-02-24T20:52:20.214Z,55.20
2018-02-24T20:54:47.780Z,55.20
2018-02-24T20:57:15.336Z,55.10
2018-02-24T20:59:42.997Z,55.20
2018-02-24T21:02:10.583Z,55.20
2018-02-24T21:04:38.176Z,55.00
2018-02-24T21:07:06.505Z,55.10
2018-02-24T21:09:34.052Z,55.10
2018-02-24T21:12:01.689Z,55.10
2018-02-24T21:14:29.236Z,55.10
2018-02-24T21:16:57.577Z,55.10
2018-02-24T21:19:26.071Z,55.10
2018-02-24T21:21:54.056Z,55.10
2018-02-24T21:24:22.884Z,55.10
2018-02-24T21:26:50.682Z,55.20
2018-02-24T21:29:18.319Z,55.40
2018-02-24T21:31:45.878Z,55.30
2018-02-24T21:34:13.757Z,55.60
2018-02-24T21:36:41.707Z,55.30
2018-02-24T21:39:09.262Z,55.30
2018-02-24T21:41:36.906Z,55.30
2018-02-24T21:44:04.464Z,55.40
2018-02-24T21:46:32.052Z,55.70
2018-02-24T21:48:59.606Z,55.60
2018-02-24T21:51:27.190Z,55.60
2018-02-24T21:56:28.858Z,56.00
2018-02-24T21:58:56.411Z,56.00
2018-02-24T22:01:23.962Z,56.00
2018-02-24T22:03:51.631Z,55.90
2018-02-24T22:06:19.213Z,56.00
2018-02-24T22:08:47.181Z,56.10
2018-02-24T22:11:14.726Z,56.20
2018-02-24T22:13:42.330Z,56.20
2018-02-24T22:16:10.686Z,56.40
2018-02-24T22:18:38.238Z,56.40
2018-02-24T22:21:05.858Z,56.50
2018-02-24T22:23:33.421Z,56.50
2018-02-24T22:26:00.997Z,56.60
2018-02-24T22:28:28.577Z,56.50
2018-02-24T22:30:56.174Z,56.80
2018-02-24T22:33:24.558Z,56.80
2018-02-24T22:35:52.119Z,56.80
2018-02-24T22:38:19.862Z,56.80
2018-02-24T22:40:47.403Z,57.00
2018-02-24T22:43:15.757Z,57.10
2018-02-24T22:45:43.325Z,57.10
2018-02-24T22:48:17.149Z,57.20
2018-02-24T22:50:44.743Z,57.30
2018-02-24T22:53:12.309Z,57.20
2018-02-24T22:55:40.018Z,57.30
2018-02-24T22:58:07.588Z,57.30
2018-02-24T23:00:35.177Z,57.20
2018-02-24T23:03:03.465Z,57.20
2018-02-24T23:05:31.049Z,57.30
2018-02-24T23:07:58.583Z,57.30
2018-02-24T23:10:26.158Z,57.40
2018-02-24T23:12:53.697Z,57.30
2018-02-24T23:15:21.619Z,57.60
2018-02-24T23:17:49.185Z,57.60
2018-02-24T23:20:16.878Z,58.40
2018-02-24T23:22:44.440Z,57.60
2018-02-24T23:25:12.742Z,57.50
2018-02-24T23:27:40.577Z,57.50
2018-02-24T23:30:08.946Z,57.30
2018-02-24T23:32:36.504Z,57.30
2018-02-24T23:35:04.855Z,57.20
2018-02-24T23:37:33.008Z,57.20
2018-02-24T23:40:00.584Z,57.20
2018-02-24T23:42:28.125Z,57.40
2018-02-24T23:44:55.853Z,57.40
2018-02-24T23:47:23.502Z,57.70
2018-02-24T23:49:52.141Z,57.80
2018-02-24T23:52:19.693Z,57.80
2018-02-24T23:54:47.225Z,57.80
2018-02-24T23:57:14.805Z,58.00
2018-02-24T23:59:42.358Z,58.00
